Pine Bluff, AR

01:31 AM CDT am 25. April 2015 (GMT -0500)
Grider | | Change Station
CLOSE
Current Station
Flughafen
Location: Pine Bluff,
Höhe: 207 ft
Wetterstationen in der Umgebung

Höhe 207 ft 34.17 °N, 91.93 °W | Updated 21 minutes ago

Light Rain
Leichter Regen
60 °F
gefühlte 60 °F
N
18
Wind Wechselnd Wind aus Ost-Südost

Heute
Max. -- | schwach -- °F
--% Regenrisiko
Gestern
Max. -- | schwach -- °F
Precip. -- inch
6:24 AM 7:46 PM
Erstes Viertel, 43% visible
Druck 29.65 inch
Sichtweite 10.0 Meilen
Wolken Wolkig 300 ft
Wolkig 11000 ft
Taupunkt 59 °F
Feuchtigkeit 96%
Regen 0.24 inch
Schneehöhe Nicht verfügbar..
UV 0 von 12
Pollen 5.20 von 12
Luftqualität Nicht verfügbar..
Flu Activity Sporadic
SPECI KPBF 250610Z AUTO 12016KT 10SM -RA BKN003 BKN110 16/15 A2965 RMK AO2 PRESFR P0000 T01560150

More Conditions Fewer Conditions

Druck 29.65 inch
Sichtweite 10.0 Meilen
Wolken Wolkig 300 ft
Wolkig 11000 ft
Taupunkt 59 °F
Feuchtigkeit 96%
Regen 0.24 inch
Schneehöhe Nicht verfügbar..
UV 0 von 12
Pollen 5.20 von 12
Luftqualität Nicht verfügbar..
Flu Activity Sporadic
SPECI KPBF 250610Z AUTO 12016KT 10SM -RA BKN003 BKN110 16/15 A2965 RMK AO2 PRESFR P0000 T01560150

More Conditions Fewer Conditions

10-Day Weather Forecast

Almanac

Astronomie

Apr. 25, 2015 Aufgang Untergang
Genaue Zeit
Bürgerliche Dämmerung
Nautische Dämmerung
Astronomische Dämmerung
Mond
Länge des sichtbaren Lichts
Tageslänge
Tomorrow will be .
, % of the Moon is Illuminated

Heutige Rekorde

State Highs State Lows

Community

WunderPhotos

Upload Photos

1,816,624 Fotos hochgeladen!

WunderBlogs® & News

Nearby

Luftqualität

  Luftqualität LQ Index Schadstoff
Not available.

Schneehöhe

Station Depth Höhe

Erdbebenaktivität

Stadt Distance Mag. Time & Date
Minimum magnitude displayed is 2.5.

küstennahe Wassertemperaturen

Ort Temperatur

Stations

Wetterstationen in der Umgebung

Stationsstandort Temp. Windchill Taupunkt Feuchtigkeit Wind Precip. Höhe Aktualisiert Art